NCAR-RAP Real-Time Weather Data

Output produced by METARs form (08 May 2021  01:29 UTC)
found at http://weather.rap.ucar.edu/surface/
 
KBGM 080053Z 31003KT 6SM -RA BR SCT005 BKN009 OVC018 07/06 A2985 RMK AO2 RAB05 SLP114 P0003 T00720061
KBGM 080044Z 30003KT 8SM -RA SCT008 BKN018 OVC037 07/06 A2985 RMK AO2 RAB05 P0002 T00670061
KBGM 080037Z 30004KT 7SM -RA BKN017 OVC039 07/06 A2984 RMK AO2 RAB05 P0002 T00720061
KBGM 072353Z 01003KT 10SM SCT040 OVC050 08/06 A2984 RMK AO2 RAB18E53 SLP114 P0000 60001 T00780056 10117 20078 53000
KBGM 072253Z 34004KT 10SM OVC055 09/04 A2984 RMK AO2 RAE52 SLP112 P0000 T00890044
KBGM 072153Z 31004KT 10SM -RA BKN040 OVC049 09/05 A2984 RMK AO2 SLP115 P0001 T00890050
KBGM 072053Z 24004KT 10SM -RA BKN040 OVC048 10/03 A2984 RMK AO2 RAE20B39 SLP113 P0000 60000 T01000028 57004
KBGM 071953Z 35004KT 10SM -RA OVC045 11/03 A2984 RMK AO2 SLP114 P0000 T01060028
KBGM 071853Z 33006KT 10SM -RA OVC050 11/01 A2985 RMK AO2 RAB35 SLP115 P0000 T01060011
KBGM 071753Z VRB03KT 10SM OVC060 11/01 A2985 RMK AO2 SLP115 T01110006 10117 20050 56013
KBGM 071653Z 29005KT 10SM OVC060 11/M01 A2987 RMK AO2 SLP119 T01111011
KBGM 071553Z 00000KT 10SM BKN060 OVC075 11/M02 A2988 RMK AO2 SLP124 T01111022
KBGM 071453Z 16008KT 10SM CLR 11/M01 A2989 RMK AO2 SLP128 T01111006 58010
KBGM 071353Z VRB06KT 10SM CLR 09/M02 A2991 RMK AO2 SLP134 T00891017
KBGM 071253Z 09004KT 10SM CLR 07/M01 A2992 RMK AO2 SLP137 T00721006
KBGM 071153Z 00000KT 10SM CLR 04/M01 A2992 RMK AO2 SLP141 T00441006 10056 20006 53001
KBGM 071053Z 05003KT 10SM CLR 03/M02 A2992 RMK AO2 SLP140 T00331022
KBGM 070953Z AUTO 00000KT 10SM CLR 01/M03 A2992 RMK AO2 SLP141 T00111028